createdAt,value
2022-08-25T00:09:53.992Z,13.88
2022-08-25T00:14:56.260Z,13.77
2022-08-25T00:19:58.601Z,13.88
2022-08-25T00:25:10.605Z,13.95
2022-08-25T00:30:16.883Z,14.07
2022-08-25T00:35:19.693Z,14.32
2022-08-25T00:40:23.768Z,13.88
2022-08-25T00:45:26.575Z,11.65
2022-08-25T00:50:32.526Z,13.70
2022-08-25T00:55:43.102Z,14.88
2022-08-25T01:00:51.805Z,13.90
2022-08-25T01:05:54.997Z,13.07
2022-08-25T01:11:00.700Z,14.77
2022-08-25T01:16:03.652Z,13.73
2022-08-25T01:26:30.384Z,14.82
2022-08-25T01:31:34.560Z,14.73
2022-08-25T01:36:37.293Z,14.73
2022-08-25T01:41:51.441Z,13.65
2022-08-25T01:46:56.819Z,14.60
2022-08-25T01:52:07.415Z,14.68
2022-08-25T01:57:36.254Z,13.70
2022-08-25T02:02:42.593Z,13.75
2022-08-25T02:08:05.888Z,15.60
2022-08-25T02:13:19.068Z,14.90
2022-08-25T02:18:48.806Z,14.13
2022-08-25T02:23:51.412Z,15.82
2022-08-25T02:28:57.328Z,16.17
2022-08-25T02:34:02.235Z,15.00
2022-08-25T02:39:12.654Z,15.60
2022-08-25T02:44:20.086Z,14.60
2022-08-25T02:49:29.008Z,15.75
2022-08-25T02:54:36.770Z,15.85
2022-08-25T02:59:51.782Z,16.15
2022-08-25T03:04:58.413Z,15.57
2022-08-25T03:10:06.266Z,15.73
2022-08-25T03:15:14.516Z,15.23
2022-08-25T03:20:18.173Z,15.43
2022-08-25T03:25:43.338Z,15.88
2022-08-25T03:30:55.847Z,16.40
2022-08-25T03:35:59.496Z,15.65
2022-08-25T03:41:04.935Z,15.85
2022-08-25T03:46:25.230Z,15.82
2022-08-25T03:51:50.889Z,15.68
2022-08-25T03:56:58.966Z,17.58
2022-08-25T04:02:02.492Z,16.88
2022-08-25T04:07:09.868Z,17.13
2022-08-25T04:12:13.154Z,16.95
2022-08-25T04:17:19.618Z,16.38
2022-08-25T04:22:23.432Z,18.45
2022-08-25T04:27:39.260Z,16.73
2022-08-25T04:33:04.039Z,16.52
2022-08-25T04:38:14.947Z,15.43
2022-08-25T04:43:34.635Z,17.10
2022-08-25T04:48:52.264Z,16.00
2022-08-25T04:54:03.478Z,16.30
2022-08-25T04:59:30.192Z,16.45
2022-08-25T05:04:55.522Z,15.57
2022-08-25T05:10:00.391Z,20.15
2022-08-25T05:15:30.388Z,18.27
2022-08-25T05:20:41.019Z,18.25
2022-08-25T05:25:45.942Z,18.98
2022-08-25T05:30:51.393Z,15.90
2022-08-25T05:35:54.914Z,16.25
2022-08-25T05:41:05.383Z,19.45
2022-08-25T05:46:13.674Z,19.77
2022-08-25T05:51:37.730Z,18.73
2022-08-25T05:56:45.551Z,15.45
2022-08-25T06:02:32.122Z,18.02
2022-08-25T06:07:36.330Z,17.08
2022-08-25T06:12:44.819Z,19.38
2022-08-25T06:17:49.688Z,17.95
2022-08-25T06:22:53.422Z,18.58
2022-08-25T06:27:56.735Z,18.52
2022-08-25T06:33:00.560Z,16.50
2022-08-25T06:38:03.224Z,18.50
2022-08-25T06:43:12.189Z,16.00
2022-08-25T06:48:16.258Z,17.63
2022-08-25T06:53:19.173Z,18.98
2022-08-25T06:58:23.356Z,16.70
2022-08-25T07:03:29.464Z,14.18
2022-08-25T07:08:33.849Z,13.25
2022-08-25T07:13:40.857Z,13.23
2022-08-25T07:18:51.752Z,11.80
2022-08-25T07:23:59.812Z,12.07
2022-08-25T07:29:04.934Z,10.18
2022-08-25T07:34:27.475Z,10.07
2022-08-25T07:39:35.740Z,10.30
2022-08-25T07:44:39.045Z,10.77
2022-08-25T07:56:19.627Z,10.02
2022-08-25T08:01:23.925Z,9.73
2022-08-25T08:06:27.365Z,8.50
2022-08-25T08:11:34.607Z,7.35
2022-08-25T08:16:37.648Z,7.00
2022-08-25T08:21:41.140Z,8.40
2022-08-25T08:26:57.579Z,7.60
2022-08-25T08:32:03.061Z,8.20
2022-08-25T08:37:07.982Z,7.63
2022-08-25T08:42:47.950Z,8.13
2022-08-25T08:48:03.807Z,7.50
2022-08-25T08:53:34.249Z,6.85
2022-08-25T08:58:41.771Z,6.43
2022-08-25T09:03:47.814Z,7.35
2022-08-25T09:09:00.579Z,6.75
2022-08-25T09:14:12.870Z,6.35
2022-08-25T09:19:43.774Z,6.73
2022-08-25T09:25:18.722Z,5.85
2022-08-25T09:30:25.183Z,5.90
2022-08-25T09:35:29.746Z,5.90
2022-08-25T09:40:48.706Z,5.35
2022-08-25T09:46:06.125Z,5.50
2022-08-25T09:51:37.789Z,5.22
2022-08-25T09:56:53.807Z,4.97
2022-08-25T10:02:01.399Z,6.32
2022-08-25T10:07:22.217Z,6.20
2022-08-25T10:12:34.569Z,5.82
2022-08-25T10:18:17.475Z,4.60
2022-08-25T10:23:27.231Z,5.55
2022-08-25T10:28:42.995Z,6.38
2022-08-25T10:33:55.056Z,5.40
2022-08-25T10:39:06.421Z,5.20
2022-08-25T10:45:23.364Z,5.45
2022-08-25T10:56:37.045Z,5.20
2022-08-25T11:02:04.739Z,4.88
2022-08-25T11:07:43.457Z,4.90
2022-08-25T11:12:46.441Z,5.10
2022-08-25T11:17:54.436Z,5.13
2022-08-25T11:23:11.323Z,5.07
2022-08-25T11:28:21.007Z,5.18
2022-08-25T11:33:30.778Z,5.10
2022-08-25T11:39:14.447Z,5.00
2022-08-25T11:44:17.286Z,5.25
2022-08-25T11:49:58.447Z,5.03
2022-08-25T11:55:31.518Z,4.97
2022-08-25T12:00:41.111Z,4.53
2022-08-25T12:05:53.102Z,4.63
2022-08-25T12:11:11.230Z,5.55
2022-08-25T12:16:39.467Z,4.88
2022-08-25T12:21:42.923Z,5.25
2022-08-25T12:26:55.663Z,5.40
2022-08-25T12:32:04.359Z,5.50
2022-08-25T12:37:22.120Z,6.18
2022-08-25T12:42:40.940Z,5.90
2022-08-25T12:47:47.978Z,5.55
2022-08-25T12:52:52.180Z,6.18
2022-08-25T12:58:02.180Z,6.70
2022-08-25T13:03:35.450Z,7.75
2022-08-25T13:08:46.923Z,7.45
2022-08-25T13:19:19.128Z,7.57
2022-08-25T13:24:32.248Z,6.88
2022-08-25T13:29:53.279Z,6.90
2022-08-25T13:35:20.142Z,6.93
2022-08-25T13:40:26.793Z,7.38
2022-08-25T13:45:34.791Z,6.13
2022-08-25T13:50:44.098Z,7.45
2022-08-25T13:55:57.173Z,6.35
2022-08-25T14:01:48.783Z,6.82
2022-08-25T14:06:48.857Z,6.55
2022-08-25T14:11:58.576Z,7.53
2022-08-25T14:17:36.496Z,6.60
2022-08-25T14:22:42.382Z,6.80
2022-08-25T14:28:14.731Z,7.55
2022-08-25T14:33:08.000Z,6.65
2022-08-25T14:38:11.745Z,6.70
2022-08-25T14:43:15.402Z,6.82
2022-08-25T14:48:28.943Z,7.97
2022-08-25T14:53:32.173Z,7.18
2022-08-25T14:58:34.677Z,6.80
2022-08-25T15:03:53.127Z,6.68
2022-08-25T15:09:13.895Z,6.57
2022-08-25T15:14:18.552Z,6.90
2022-08-25T15:19:32.617Z,7.13
2022-08-25T15:24:37.968Z,8.52
2022-08-25T15:29:41.865Z,7.93
2022-08-25T15:34:44.189Z,7.70
2022-08-25T15:39:48.434Z,7.40
2022-08-25T15:44:52.779Z,7.38
2022-08-25T15:50:10.957Z,7.85
2022-08-25T15:55:17.546Z,6.40
2022-08-25T16:00:19.917Z,6.43
2022-08-25T16:05:48.091Z,6.07
2022-08-25T16:10:51.301Z,6.47
2022-08-25T16:15:57.402Z,7.72
2022-08-25T16:20:59.665Z,5.80
2022-08-25T16:26:04.679Z,6.30
2022-08-25T16:31:09.980Z,6.35
2022-08-25T16:36:17.398Z,6.28
2022-08-25T16:41:23.057Z,6.55
2022-08-25T16:46:25.372Z,6.65
2022-08-25T16:51:29.598Z,7.45
2022-08-25T16:56:36.577Z,7.38
2022-08-25T17:01:41.124Z,6.68
2022-08-25T17:06:51.590Z,6.60
2022-08-25T17:11:57.400Z,6.45
2022-08-25T17:16:59.752Z,6.63
2022-08-25T17:22:07.038Z,7.75
2022-08-25T17:27:10.379Z,8.50
2022-08-25T17:32:14.878Z,8.50
2022-08-25T17:37:17.117Z,8.90
2022-08-25T17:42:21.807Z,8.43
2022-08-25T17:47:24.185Z,8.68
2022-08-25T17:52:26.793Z,8.23
2022-08-25T17:57:29.315Z,8.60
2022-08-25T18:02:31.765Z,8.65
2022-08-25T18:07:34.552Z,11.52
2022-08-25T18:12:37.651Z,10.63
2022-08-25T18:17:40.147Z,10.50
2022-08-25T18:22:43.982Z,9.82
2022-08-25T18:27:47.220Z,8.77
2022-08-25T18:32:50.564Z,8.82
2022-08-25T18:38:11.545Z,8.82
2022-08-25T18:43:15.392Z,9.20
2022-08-25T18:48:20.267Z,13.38
2022-08-25T18:53:36.793Z,15.57
2022-08-25T18:58:40.174Z,13.93
2022-08-25T19:03:44.622Z,11.10
2022-08-25T19:08:48.270Z,9.38
2022-08-25T19:13:52.429Z,8.82
2022-08-25T19:18:55.077Z,8.95
2022-08-25T19:23:57.754Z,9.00
2022-08-25T19:29:01.628Z,7.70
2022-08-25T19:34:04.939Z,8.27
2022-08-25T19:39:10.354Z,8.27
2022-08-25T19:44:12.871Z,9.75
2022-08-25T19:54:25.482Z,10.95
2022-08-25T19:59:42.349Z,11.93
2022-08-25T20:05:23.485Z,12.90
2022-08-25T20:10:32.743Z,13.05
2022-08-25T20:15:43.026Z,13.48
2022-08-25T20:20:47.430Z,15.90
2022-08-25T20:25:51.354Z,15.00
2022-08-25T20:30:57.178Z,13.68
2022-08-25T20:36:03.804Z,12.77
2022-08-25T20:41:11.867Z,11.57
2022-08-25T20:46:23.038Z,14.13
2022-08-25T20:51:35.449Z,15.75
2022-08-25T20:56:41.069Z,15.75
2022-08-25T21:01:44.857Z,13.52
2022-08-25T21:06:49.479Z,12.45
2022-08-25T21:11:53.450Z,13.43
2022-08-25T21:17:25.148Z,13.98
2022-08-25T21:22:39.160Z,16.42
2022-08-25T21:27:41.670Z,21.80
2022-08-25T21:32:53.514Z,25.55
2022-08-25T21:37:56.237Z,25.38
2022-08-25T21:42:58.487Z,23.83
2022-08-25T21:53:08.966Z,18.10
2022-08-25T21:58:12.464Z,17.63
2022-08-25T22:03:19.906Z,17.95
2022-08-25T22:08:24.535Z,16.05
2022-08-25T22:13:33.676Z,14.20
2022-08-25T22:18:36.749Z,13.20
2022-08-25T22:23:44.191Z,12.63
2022-08-25T22:28:47.089Z,12.48
2022-08-25T22:33:50.668Z,13.90
2022-08-25T22:38:54.196Z,13.98
2022-08-25T22:44:01.416Z,14.65
2022-08-25T22:49:08.398Z,12.93
2022-08-25T22:54:14.934Z,13.75
2022-08-25T22:59:17.275Z,12.52
2022-08-25T23:04:20.783Z,12.90
2022-08-25T23:09:23.126Z,12.70
2022-08-25T23:14:27.319Z,13.27
2022-08-25T23:19:29.717Z,12.38
2022-08-25T23:24:35.046Z,13.02
2022-08-25T23:29:39.908Z,15.73
2022-08-25T23:34:46.532Z,16.48
2022-08-25T23:39:49.870Z,16.65
2022-08-25T23:44:52.833Z,17.48
2022-08-25T23:49:55.778Z,15.48
2022-08-25T23:55:00.832Z,14.48
